createdAt,value
2018-11-01T00:01:32.600Z,100343.83
2018-11-01T00:04:00.098Z,100329.98
2018-11-01T00:06:27.581Z,100325.66
2018-11-01T00:08:55.059Z,100326.45
2018-11-01T00:11:22.599Z,100321.96
2018-11-01T00:13:50.134Z,100326.94
2018-11-01T00:16:17.598Z,100321.08
2018-11-01T00:18:45.095Z,100328.70
2018-11-01T00:21:12.566Z,100331.91
2018-11-01T00:23:40.560Z,100326.58
2018-11-01T00:26:08.304Z,100330.69
2018-11-01T00:28:35.815Z,100335.26
2018-11-01T00:31:03.313Z,100320.67
2018-11-01T00:33:30.792Z,100326.39
2018-11-01T00:35:58.304Z,100332.30
2018-11-01T00:38:25.818Z,100339.59
2018-11-01T00:40:53.293Z,100329.50
2018-11-01T00:43:20.753Z,100323.00
2018-11-01T00:45:48.218Z,100324.38
2018-11-01T00:48:15.698Z,100322.61
2018-11-01T00:50:43.157Z,100321.02
2018-11-01T00:53:10.621Z,100325.35
2018-11-01T00:55:38.093Z,100331.41
2018-11-01T00:58:05.564Z,100325.79
2018-11-01T01:00:33.021Z,100325.49
2018-11-01T01:03:00.486Z,100316.44
2018-11-01T01:05:27.946Z,100320.53
2018-11-01T01:07:55.421Z,100315.71
2018-11-01T01:10:22.981Z,100306.19
2018-11-01T01:12:50.442Z,100300.81
2018-11-01T01:15:17.900Z,100297.70
2018-11-01T01:17:45.357Z,100296.33
2018-11-01T01:20:13.913Z,100294.81
2018-11-01T01:22:42.394Z,100286.09
2018-11-01T01:25:11.589Z,100279.84
2018-11-01T01:27:39.250Z,100293.23
2018-11-01T01:30:06.719Z,100293.97
2018-11-01T01:32:34.186Z,100294.58
2018-11-01T01:35:01.647Z,100291.48
2018-11-01T01:37:29.106Z,100301.16
2018-11-01T01:39:56.561Z,100299.20
2018-11-01T01:42:28.226Z,100291.27
2018-11-01T01:44:55.693Z,100290.03
2018-11-01T01:47:23.149Z,100299.52
2018-11-01T01:49:50.621Z,100290.70
2018-11-01T01:52:18.090Z,100283.36
2018-11-01T01:54:45.550Z,100278.25
2018-11-01T01:57:13.018Z,100277.13
2018-11-01T01:59:40.489Z,100270.33
2018-11-01T02:02:07.955Z,100254.22
2018-11-01T02:04:35.426Z,100258.95
2018-11-01T02:07:02.905Z,100250.80
2018-11-01T02:09:30.366Z,100245.59
2018-11-01T02:11:57.901Z,100250.55
2018-11-01T02:14:25.369Z,100255.80
2018-11-01T02:16:52.829Z,100261.84
2018-11-01T02:19:20.316Z,100269.55
2018-11-01T02:21:47.778Z,100256.35
2018-11-01T02:24:15.249Z,100244.21
2018-11-01T02:26:42.822Z,100243.35
2018-11-01T02:29:10.293Z,100253.44
2018-11-01T02:31:37.767Z,100267.34
2018-11-01T02:34:05.247Z,100258.03
2018-11-01T02:36:32.706Z,100249.26
2018-11-01T02:39:00.188Z,100241.54
2018-11-01T02:41:27.651Z,100226.84
2018-11-01T02:43:55.141Z,100219.17
2018-11-01T02:46:22.705Z,100210.86
2018-11-01T02:48:50.195Z,100217.41
2018-11-01T02:51:17.672Z,100211.50
2018-11-01T02:53:45.133Z,100220.56
2018-11-01T02:56:12.593Z,100203.42
2018-11-01T02:58:40.065Z,100216.33
2018-11-01T03:01:08.003Z,100209.33
2018-11-01T03:03:36.690Z,100211.58
2018-11-01T03:06:04.158Z,100213.37
2018-11-01T03:08:31.643Z,100202.53
2018-11-01T03:10:59.105Z,100195.12
2018-11-01T03:13:26.655Z,100202.92
2018-11-01T03:15:54.536Z,100206.02
2018-11-01T03:18:22.022Z,100219.44
2018-11-01T03:20:49.494Z,100223.35
2018-11-01T03:23:16.958Z,100224.05
2018-11-01T03:25:44.431Z,100238.20
2018-11-01T03:28:11.929Z,100231.52
2018-11-01T03:30:39.446Z,100222.58
2018-11-01T03:33:07.011Z,100225.67
2018-11-01T03:35:34.510Z,100222.33
2018-11-01T03:38:02.067Z,100217.23
2018-11-01T03:40:29.575Z,100210.50
2018-11-01T03:42:57.037Z,100206.66
2018-11-01T03:45:24.508Z,100210.44
2018-11-01T03:47:51.974Z,100202.75
2018-11-01T03:50:19.513Z,100208.33
2018-11-01T03:52:47.007Z,100206.52
2018-11-01T03:55:14.479Z,100204.66
2018-11-01T03:57:42.727Z,100208.47
2018-11-01T04:00:10.359Z,100215.91
2018-11-01T04:02:37.831Z,100211.02
2018-11-01T04:05:05.291Z,100207.35
2018-11-01T04:07:32.846Z,100203.26
2018-11-01T04:10:00.350Z,100196.05
2018-11-01T04:12:27.862Z,100195.95
2018-11-01T04:14:55.679Z,100191.84
2018-11-01T04:17:22.984Z,100207.28
2018-11-01T04:19:50.544Z,100209.84
2018-11-01T04:22:18.010Z,100207.55
2018-11-01T04:24:45.487Z,100200.41
2018-11-01T04:27:12.900Z,100189.00
2018-11-01T04:29:40.532Z,100199.09
2018-11-01T04:32:08.007Z,100201.88
2018-11-01T04:34:35.426Z,100203.59
2018-11-01T04:37:02.864Z,100205.45
2018-11-01T04:39:30.289Z,100208.01
2018-11-01T04:41:57.889Z,100202.47
2018-11-01T04:44:25.485Z,100191.79
2018-11-01T04:46:52.927Z,100194.67
2018-11-01T04:49:20.363Z,100189.89
2018-11-01T04:51:47.856Z,100190.02
2018-11-01T04:54:15.287Z,100183.81
2018-11-01T04:56:42.709Z,100185.81
2018-11-01T04:59:10.483Z,100191.53
2018-11-01T05:01:37.906Z,100196.90
2018-11-01T05:04:05.330Z,100197.39
2018-11-01T05:06:33.660Z,100197.91
2018-11-01T05:09:01.073Z,100191.33
2018-11-01T05:11:28.650Z,100188.17
2018-11-01T05:13:56.069Z,100176.66
2018-11-01T05:16:23.509Z,100166.67
2018-11-01T05:18:50.931Z,100164.77
2018-11-01T05:21:18.474Z,100154.27
2018-11-01T05:23:45.989Z,100168.02
2018-11-01T05:26:13.446Z,100160.91
2018-11-01T05:28:40.884Z,100159.05
2018-11-01T05:31:08.411Z,100159.15
2018-11-01T05:33:35.843Z,100153.92
2018-11-01T05:36:03.374Z,100141.50
2018-11-01T05:38:30.795Z,100142.09
2018-11-01T05:40:58.248Z,100154.45
2018-11-01T05:43:25.688Z,100148.21
2018-11-01T05:45:53.127Z,100152.44
2018-11-01T05:48:20.566Z,100140.44
2018-11-01T05:50:48.000Z,100146.34
2018-11-01T05:53:15.435Z,100144.09
2018-11-01T05:55:42.850Z,100144.67
2018-11-01T05:58:10.296Z,100145.02
2018-11-01T06:00:37.727Z,100137.02
2018-11-01T06:03:05.145Z,100143.83
2018-11-01T06:05:32.620Z,100147.77
2018-11-01T06:08:02.175Z,100146.32
2018-11-01T06:10:29.597Z,100158.63
2018-11-01T06:12:57.027Z,100171.56
2018-11-01T06:15:24.759Z,100158.42
2018-11-01T06:17:52.208Z,100157.39
2018-11-01T06:20:19.714Z,100156.39
2018-11-01T06:22:47.234Z,100148.11
2018-11-01T06:25:14.661Z,100152.35
2018-11-01T06:27:42.102Z,100151.05
2018-11-01T06:30:09.568Z,100145.36
2018-11-01T06:32:37.029Z,100147.33
2018-11-01T06:35:06.773Z,100146.52
2018-11-01T06:37:34.222Z,100144.07
2018-11-01T06:40:01.718Z,100136.69
2018-11-01T06:42:29.169Z,100131.41
2018-11-01T06:44:56.698Z,100131.13
2018-11-01T06:47:24.051Z,100120.27
2018-11-01T06:49:51.594Z,100117.35
2018-11-01T06:52:19.048Z,100123.62
2018-11-01T06:54:46.461Z,100134.22
2018-11-01T06:57:13.907Z,100134.83
2018-11-01T06:59:41.350Z,100116.48
2018-11-01T07:02:08.778Z,100119.32
2018-11-01T07:04:36.218Z,100119.96
2018-11-01T07:07:03.652Z,100109.83
2018-11-01T07:09:31.061Z,100115.78
2018-11-01T07:11:58.572Z,100100.16
2018-11-01T07:14:26.015Z,100089.05
2018-11-01T07:16:53.494Z,100075.69
2018-11-01T07:19:20.910Z,100077.48
2018-11-01T07:21:48.341Z,100074.81
2018-11-01T07:24:16.333Z,100063.48
2018-11-01T07:26:43.834Z,100059.10
2018-11-01T07:29:11.354Z,100054.88
2018-11-01T07:31:38.801Z,100053.95
2018-11-01T07:34:06.258Z,100060.59
2018-11-01T07:36:33.873Z,100062.98
2018-11-01T07:39:01.307Z,100066.58
2018-11-01T07:41:28.737Z,100061.97
2018-11-01T07:43:56.165Z,100053.45
2018-11-01T07:46:23.597Z,100045.35
2018-11-01T07:48:51.026Z,100036.13
2018-11-01T07:51:18.506Z,100033.29
2018-11-01T07:53:45.947Z,100031.70
2018-11-01T07:56:13.405Z,100024.88
2018-11-01T07:58:40.830Z,100021.49
2018-11-01T08:01:08.263Z,100023.36
2018-11-01T08:03:35.702Z,100010.03
2018-11-01T08:06:03.287Z,99999.70
2018-11-01T08:08:30.578Z,100011.06
2018-11-01T08:10:58.076Z,100020.14
2018-11-01T08:13:25.516Z,100017.13
2018-11-01T08:15:52.982Z,100013.66
2018-11-01T08:18:20.448Z,100017.59
2018-11-01T08:20:47.959Z,100023.52
2018-11-01T08:23:15.315Z,100033.70
2018-11-01T08:25:42.807Z,100035.21
2018-11-01T08:28:10.259Z,100032.80
2018-11-01T08:30:37.711Z,100042.28
2018-11-01T08:33:05.227Z,100036.88
2018-11-01T08:35:32.717Z,100044.66
2018-11-01T08:38:00.168Z,100046.92
2018-11-01T08:40:27.602Z,100032.37
2018-11-01T08:42:55.044Z,100027.56
2018-11-01T08:45:22.483Z,100018.80
2018-11-01T08:47:49.995Z,100012.77
2018-11-01T08:50:17.438Z,100014.83
2018-11-01T08:52:45.267Z,100010.89
2018-11-01T08:55:13.191Z,100011.69
2018-11-01T08:57:41.775Z,100002.53
2018-11-01T09:00:09.987Z,100000.81
2018-11-01T09:02:37.652Z,99993.23
2018-11-01T09:05:05.084Z,99992.76
2018-11-01T09:07:32.611Z,99997.75
2018-11-01T09:10:00.016Z,99989.25
2018-11-01T09:12:27.439Z,99984.16
2018-11-01T09:14:54.881Z,99988.87
2018-11-01T09:17:22.367Z,99996.05
2018-11-01T09:19:49.811Z,100001.95
2018-11-01T09:22:17.248Z,100001.73
2018-11-01T09:24:44.706Z,100008.38
2018-11-01T09:27:12.216Z,100014.06
2018-11-01T09:29:39.599Z,100008.09
2018-11-01T09:32:07.066Z,99999.20
2018-11-01T09:34:34.500Z,100001.30
2018-11-01T09:37:01.941Z,99992.75
2018-11-01T09:39:29.379Z,99988.68
2018-11-01T09:41:56.815Z,99993.56
2018-11-01T09:44:24.274Z,99981.13
2018-11-01T09:46:52.085Z,99961.80
2018-11-01T09:49:19.116Z,99956.22
2018-11-01T09:51:46.546Z,99952.45
2018-11-01T09:54:13.973Z,99950.20
2018-11-01T09:56:41.455Z,99935.64
2018-11-01T09:59:09.140Z,99946.50
2018-11-01T10:01:36.574Z,99947.80
2018-11-01T10:04:04.007Z,99944.94
2018-11-01T10:06:31.433Z,99963.16
2018-11-01T10:08:58.885Z,99970.84
2018-11-01T10:11:26.309Z,99979.64
2018-11-01T10:13:53.737Z,99977.98
2018-11-01T10:16:21.288Z,99961.07
2018-11-01T10:18:48.606Z,99950.12
2018-11-01T10:21:16.048Z,99939.61
2018-11-01T10:23:43.464Z,99926.20
2018-11-01T10:26:10.898Z,99928.48
2018-11-01T10:28:38.333Z,99924.21
2018-11-01T10:31:05.745Z,99919.80
2018-11-01T10:33:33.192Z,99916.64
2018-11-01T10:36:00.810Z,99929.23
2018-11-01T10:38:28.258Z,99933.55
2018-11-01T10:40:55.717Z,99924.58
2018-11-01T10:43:23.186Z,99915.53
2018-11-01T10:45:50.609Z,99925.52
2018-11-01T10:48:18.048Z,99927.83
2018-11-01T10:50:45.503Z,99916.05
2018-11-01T10:53:12.939Z,99912.17
2018-11-01T10:55:40.362Z,99906.64
2018-11-01T10:58:07.822Z,99907.09
2018-11-01T11:00:41.006Z,99915.69
2018-11-01T11:03:08.294Z,99909.68
2018-11-01T11:05:35.726Z,99904.95
2018-11-01T11:08:03.142Z,99902.30
2018-11-01T11:10:30.561Z,99893.23
2018-11-01T11:12:57.994Z,99895.31
2018-11-01T11:15:25.422Z,99900.09
2018-11-01T11:17:52.858Z,99897.09
2018-11-01T11:20:20.367Z,99893.06
2018-11-01T11:22:47.722Z,99904.42
2018-11-01T11:25:15.178Z,99903.18
2018-11-01T11:27:42.617Z,99908.80
2018-11-01T11:30:10.465Z,99899.59
2018-11-01T11:32:37.933Z,99912.09
2018-11-01T11:35:05.366Z,99913.42
2018-11-01T11:37:32.813Z,99912.14
2018-11-01T11:40:00.270Z,99925.59
2018-11-01T11:42:27.714Z,99934.30
2018-11-01T11:44:55.199Z,99939.89
2018-11-01T11:47:22.622Z,99941.09
2018-11-01T11:49:50.045Z,99938.13
2018-11-01T11:52:17.486Z,99940.27
2018-11-01T11:54:44.921Z,99935.42
2018-11-01T11:57:12.426Z,99925.84
2018-11-01T11:59:39.906Z,99927.58
2018-11-01T12:02:07.398Z,99929.73
2018-11-01T12:04:34.802Z,99927.50
2018-11-01T12:07:02.242Z,99917.00
2018-11-01T12:09:29.695Z,99907.92
2018-11-01T12:11:57.115Z,99906.62
2018-11-01T12:14:24.569Z,99892.73
2018-11-01T12:16:52.001Z,99881.48
2018-11-01T12:19:19.451Z,99871.08
2018-11-01T12:21:46.912Z,99866.66
2018-11-01T12:24:14.342Z,99860.14
2018-11-01T12:26:41.787Z,99862.77
2018-11-01T12:29:09.467Z,99864.06
2018-11-01T12:31:36.906Z,99855.38
2018-11-01T12:34:04.330Z,99858.84
2018-11-01T12:36:31.759Z,99859.69
2018-11-01T12:38:59.274Z,99863.55
2018-11-01T12:41:26.775Z,99861.81
2018-11-01T12:43:54.191Z,99840.55
2018-11-01T12:46:21.636Z,99834.09
2018-11-01T12:48:49.162Z,99816.30
2018-11-01T12:51:16.587Z,99802.41
2018-11-01T12:53:44.055Z,99800.67
2018-11-01T12:56:11.860Z,99794.16
2018-11-01T12:58:39.291Z,99801.48
2018-11-01T13:01:07.044Z,99795.44
2018-11-01T13:03:34.492Z,99784.63
2018-11-01T13:06:01.914Z,99777.19
2018-11-01T13:08:29.334Z,99774.59
2018-11-01T13:10:56.771Z,99779.34
2018-11-01T13:13:24.257Z,99783.20
2018-11-01T13:15:51.724Z,99774.13
2018-11-01T13:18:19.201Z,99782.40
2018-11-01T13:20:46.605Z,99788.04
2018-11-01T13:23:14.107Z,99791.11
2018-11-01T13:25:41.534Z,99785.05
2018-11-01T13:28:09.033Z,99785.08
2018-11-01T13:30:36.478Z,99783.31
2018-11-01T13:33:03.910Z,99784.14
2018-11-01T13:35:31.413Z,99781.08
2018-11-01T13:37:58.769Z,99775.52
2018-11-01T13:40:26.696Z,99779.80
2018-11-01T13:42:53.674Z,99789.37
2018-11-01T13:45:21.117Z,99804.05
2018-11-01T13:47:48.609Z,99809.22
2018-11-01T13:50:15.996Z,99811.77
2018-11-01T13:52:43.438Z,99807.45
2018-11-01T13:55:12.106Z,99802.28
2018-11-01T13:57:39.527Z,99810.89
2018-11-01T14:00:07.165Z,99819.50
2018-11-01T14:02:37.498Z,99830.45
2018-11-01T14:05:04.927Z,99820.88
2018-11-01T14:07:32.363Z,99826.97
2018-11-01T14:09:59.834Z,99829.56
2018-11-01T14:12:27.257Z,99812.25
2018-11-01T14:14:55.020Z,99780.65
2018-11-01T14:17:22.106Z,99771.51
2018-11-01T14:19:49.526Z,99786.92
2018-11-01T14:22:17.090Z,99795.50
2018-11-01T14:24:44.547Z,99772.91
2018-11-01T14:27:12.085Z,99762.23
2018-11-01T14:29:39.482Z,99758.69
2018-11-01T14:32:06.993Z,99760.83
2018-11-01T14:34:34.422Z,99769.02
2018-11-01T14:37:02.134Z,99793.59
2018-11-01T14:39:29.573Z,99804.46
2018-11-01T14:41:57.002Z,99817.25
2018-11-01T14:44:24.473Z,99826.16
2018-11-01T14:46:51.886Z,99820.78
2018-11-01T14:49:19.362Z,99823.77
2018-11-01T14:51:47.824Z,99803.39
2018-11-01T14:54:15.461Z,99787.07
2018-11-01T14:56:43.881Z,99787.70
2018-11-01T14:59:11.280Z,99785.02
2018-11-01T15:01:37.578Z,99785.52
2018-11-01T15:04:05.002Z,99797.00
2018-11-01T15:06:32.558Z,99799.41
2018-11-01T15:08:59.869Z,99791.05
2018-11-01T15:11:27.300Z,99784.48
2018-11-01T15:13:54.747Z,99774.05
2018-11-01T15:16:22.202Z,99783.52
2018-11-01T15:18:49.957Z,99790.33
2018-11-01T15:21:17.327Z,99787.83
2018-11-01T15:23:44.803Z,99783.84
2018-11-01T15:26:12.385Z,99778.83
2018-11-01T15:28:39.736Z,99774.06
2018-11-01T15:31:07.284Z,99762.08
2018-11-01T15:33:35.920Z,99760.41
2018-11-01T15:36:03.246Z,99770.41
2018-11-01T15:38:30.691Z,99762.32
2018-11-01T15:41:00.495Z,99758.16
2018-11-01T15:43:27.966Z,99766.80
2018-11-01T15:45:55.422Z,99779.36
2018-11-01T15:48:22.890Z,99775.39
2018-11-01T15:50:50.323Z,99771.06
2018-11-01T15:53:17.874Z,99772.44
2018-11-01T15:55:45.391Z,99775.89
2018-11-01T15:58:12.830Z,99767.29
2018-11-01T16:00:40.259Z,99775.88
2018-11-01T16:03:07.766Z,99781.90
2018-11-01T16:05:35.253Z,99785.30
2018-11-01T16:08:02.711Z,99780.47
2018-11-01T16:10:30.137Z,99776.55
2018-11-01T16:12:57.568Z,99769.72
2018-11-01T16:15:25.007Z,99777.03
2018-11-01T16:17:52.426Z,99784.23
2018-11-01T16:20:19.870Z,99783.49
2018-11-01T16:22:47.276Z,99802.41
2018-11-01T16:25:14.783Z,99811.41
2018-11-01T16:27:42.200Z,99790.21
2018-11-01T16:30:09.691Z,99801.95
2018-11-01T16:32:37.187Z,99810.22
2018-11-01T16:35:04.779Z,99811.95
2018-11-01T16:37:32.207Z,99806.09
2018-11-01T16:39:59.733Z,99804.73
2018-11-01T16:42:27.289Z,99809.55
2018-11-01T16:44:54.652Z,99812.00
2018-11-01T16:47:22.058Z,99817.13
2018-11-01T16:49:49.502Z,99812.74
2018-11-01T16:52:16.942Z,99823.13
2018-11-01T16:54:44.370Z,99815.77
2018-11-01T16:57:11.801Z,99821.80
2018-11-01T16:59:39.244Z,99833.58
2018-11-01T17:02:06.659Z,99826.27
2018-11-01T17:04:34.245Z,99819.48
2018-11-01T17:07:01.675Z,99842.01
2018-11-01T17:09:29.134Z,99835.94
2018-11-01T17:11:56.566Z,99835.48
2018-11-01T17:14:24.002Z,99834.25
2018-11-01T17:16:51.441Z,99838.78
2018-11-01T17:19:18.865Z,99834.59
2018-11-01T17:21:46.331Z,99829.39
2018-11-01T17:24:13.771Z,99827.61
2018-11-01T17:26:41.200Z,99838.42
2018-11-01T17:29:08.622Z,99836.34
2018-11-01T17:31:36.122Z,99846.33
2018-11-01T17:34:03.581Z,99856.36
2018-11-01T17:36:30.995Z,99852.80
2018-11-01T17:38:58.431Z,99854.48
2018-11-01T17:41:25.845Z,99858.77
2018-11-01T17:43:53.344Z,99860.98
2018-11-01T17:46:20.769Z,99864.42
2018-11-01T17:48:48.138Z,99871.40
2018-11-01T17:51:15.718Z,99869.09
2018-11-01T17:53:43.053Z,99866.56
2018-11-01T17:56:10.490Z,99846.75
2018-11-01T17:58:37.909Z,99855.81
2018-11-01T18:01:05.346Z,99861.10
2018-11-01T18:03:32.781Z,99863.64
2018-11-01T18:06:00.210Z,99869.62
2018-11-01T18:08:27.854Z,99879.58
2018-11-01T18:10:55.070Z,99874.36
2018-11-01T18:13:22.499Z,99870.91
2018-11-01T18:15:49.929Z,99884.84
2018-11-01T18:18:17.363Z,99888.09
2018-11-01T18:20:44.789Z,99895.04
2018-11-01T18:23:12.358Z,99889.75
2018-11-01T18:25:45.185Z,99893.54
2018-11-01T18:28:12.575Z,99891.14
2018-11-01T18:30:40.025Z,99879.33
2018-11-01T18:33:07.680Z,99872.90
2018-11-01T18:35:34.902Z,99877.67
2018-11-01T18:38:02.336Z,99873.36
2018-11-01T18:40:29.778Z,99871.89
2018-11-01T18:42:57.215Z,99877.48
2018-11-01T18:45:24.645Z,99880.78
2018-11-01T18:47:52.072Z,99876.95
2018-11-01T18:50:19.531Z,99885.62
2018-11-01T18:52:46.974Z,99891.61
2018-11-01T18:55:14.401Z,99893.30
2018-11-01T18:57:41.946Z,99899.75
2018-11-01T19:00:09.631Z,99905.89
2018-11-01T19:02:37.060Z,99908.63
2018-11-01T19:05:04.492Z,99912.23
2018-11-01T19:07:31.945Z,99922.09
2018-11-01T19:09:59.386Z,99915.03
2018-11-01T19:12:26.818Z,99914.03
2018-11-01T19:14:54.359Z,99903.08
2018-11-01T19:17:21.761Z,99908.73
2018-11-01T19:19:49.189Z,99897.48
2018-11-01T19:22:16.625Z,99908.45
2018-11-01T19:24:44.074Z,99896.94
2018-11-01T19:27:11.746Z,99914.71
2018-11-01T19:29:38.956Z,99910.24
2018-11-01T19:32:06.385Z,99918.48
2018-11-01T19:34:33.952Z,99920.08
2018-11-01T19:37:01.242Z,99927.98
2018-11-01T19:39:28.670Z,99922.37
2018-11-01T19:41:56.091Z,99932.75
2018-11-01T19:44:23.553Z,99935.34
2018-11-01T19:46:51.026Z,99939.61
2018-11-01T19:49:18.391Z,99948.22
2018-11-01T19:51:45.820Z,99953.23
2018-11-01T19:54:13.307Z,99959.72
2018-11-01T19:56:40.694Z,99968.29
2018-11-01T19:59:08.154Z,99974.84
2018-11-01T20:01:35.611Z,99975.92
2018-11-01T20:04:03.041Z,99993.30
2018-11-01T20:06:30.482Z,100003.88
2018-11-01T20:08:58.013Z,100000.19
2018-11-01T20:11:25.387Z,100000.01
2018-11-01T20:13:52.843Z,100001.55
2018-11-01T20:16:20.274Z,100006.66
2018-11-01T20:18:47.849Z,100006.82
2018-11-01T20:21:15.134Z,100011.75
2018-11-01T20:23:42.648Z,100028.00
2018-11-01T20:26:10.066Z,100024.80
2018-11-01T20:28:37.584Z,100027.41
2018-11-01T20:31:05.053Z,100029.09
2018-11-01T20:33:32.525Z,100028.31
2018-11-01T20:35:59.926Z,100036.06
2018-11-01T20:38:27.441Z,100036.89
2018-11-01T20:40:54.913Z,100042.86
2018-11-01T20:43:22.375Z,100058.77
2018-11-01T20:45:49.789Z,100056.92
2018-11-01T20:48:17.217Z,100072.95
2018-11-01T20:50:44.647Z,100077.58
2018-11-01T20:53:12.083Z,100083.26
2018-11-01T20:55:39.514Z,100082.23
2018-11-01T20:58:06.951Z,100088.63
2018-11-01T21:00:34.382Z,100092.80
2018-11-01T21:03:01.818Z,100095.46
2018-11-01T21:05:29.250Z,100097.56
2018-11-01T21:07:56.673Z,100097.15
2018-11-01T21:10:24.118Z,100083.63
2018-11-01T21:12:51.551Z,100073.69
2018-11-01T21:15:18.993Z,100079.02
2018-11-01T21:17:46.434Z,100091.68
2018-11-01T21:20:13.863Z,100091.28
2018-11-01T21:22:41.421Z,100095.46
2018-11-01T21:25:09.991Z,100103.50
2018-11-01T21:27:37.456Z,100105.13
2018-11-01T21:30:04.925Z,100116.39
2018-11-01T21:32:32.371Z,100119.05
2018-11-01T21:34:59.984Z,100120.02
2018-11-01T21:37:27.351Z,100130.03
2018-11-01T21:39:54.780Z,100132.52
2018-11-01T21:42:22.217Z,100128.17
2018-11-01T21:44:49.746Z,100127.73
2018-11-01T21:47:17.202Z,100132.88
2018-11-01T21:49:44.649Z,100130.75
2018-11-01T21:52:12.094Z,100138.50
2018-11-01T21:54:39.558Z,100139.81
2018-11-01T21:57:07.001Z,100141.25
2018-11-01T21:59:34.446Z,100153.98
2018-11-01T22:02:01.875Z,100150.26
2018-11-01T22:04:29.319Z,100143.86
2018-11-01T22:06:56.774Z,100158.81
2018-11-01T22:09:24.229Z,100158.04
2018-11-01T22:11:51.649Z,100155.72
2018-11-01T22:14:19.082Z,100170.81
2018-11-01T22:16:46.505Z,100173.28
2018-11-01T22:19:13.945Z,100181.70
2018-11-01T22:21:41.372Z,100187.67
2018-11-01T22:24:08.797Z,100181.92
2018-11-01T22:26:36.252Z,100198.66
2018-11-01T22:29:03.705Z,100210.69
2018-11-01T22:31:31.151Z,100214.22
2018-11-01T22:33:58.587Z,100221.95
2018-11-01T22:36:26.026Z,100219.41
2018-11-01T22:38:53.518Z,100229.70
2018-11-01T22:41:20.878Z,100239.94
2018-11-01T22:43:48.349Z,100243.63
2018-11-01T22:46:15.960Z,100249.37
2018-11-01T22:48:43.721Z,100250.64
2018-11-01T22:51:11.133Z,100259.02
2018-11-01T22:53:38.555Z,100272.44
2018-11-01T22:56:05.981Z,100266.27
2018-11-01T22:58:33.420Z,100281.86
2018-11-01T23:01:00.856Z,100293.88
2018-11-01T23:03:28.427Z,100297.73
2018-11-01T23:05:55.862Z,100296.81
2018-11-01T23:08:23.463Z,100295.77
2018-11-01T23:10:51.031Z,100306.22
2018-11-01T23:13:18.467Z,100302.13
2018-11-01T23:15:45.913Z,100305.70
2018-11-01T23:18:13.727Z,100317.03
2018-11-01T23:20:41.158Z,100317.58
2018-11-01T23:23:08.601Z,100326.56
2018-11-01T23:25:36.060Z,100328.45
2018-11-01T23:28:03.495Z,100326.05
2018-11-01T23:30:30.936Z,100338.44
2018-11-01T23:32:58.422Z,100353.20
2018-11-01T23:35:25.798Z,100349.30
2018-11-01T23:37:58.606Z,100352.42
2018-11-01T23:40:31.393Z,100343.42
2018-11-01T23:43:04.074Z,100342.98
2018-11-01T23:45:36.863Z,100354.94
2018-11-01T23:48:03.562Z,100357.39
2018-11-01T23:50:47.507Z,100355.35
2018-11-01T23:53:17.871Z,100342.22
2018-11-01T23:55:45.310Z,100345.63
2018-11-01T23:58:12.774Z,100341.44
